Goose Creek, SC (29445)

5:51 AM EST on February 07, 2016 (GMT -0500)
Goose Creek, SC US | | Change Station
CLOSE
Current Station
Personal Weather Station
Location: Goose Creek, SC
Elevation: 39 ft
Nearby Weather Stations
Active Advisory: Flood Warning, Lake Wind Advisory

Elev 39 ft 32.99 °N, 80.03 °W | Updated 7 seconds ago

Rain
Rain
40.0 °F
Feels Like 37 °F
N
4.4
Wind Variable Wind from NNW
Gusts 9.9 mph

Today
High -- | Low -- °F
--% Chance of Precip.
Yesterday
High -- | Low -- °F
Precip. -- in
Pressure 29.96 in
Visibility 10.0 miles
Clouds Mostly Cloudy 1300 ft
Overcast 4000 ft
Windchill 37 °F
Dew Point 38 °F
Humidity 91%
Rainfall 0.33 in
Snow Depth Not available.
7:11 AM 5:57 PM
Waning Crescent, 2% visible
METAR KCHS 070956Z 01015KT 10SM RA BKN013 OVC040 04/03 A2997 RMK AO2 SLP146 P0008 T00440028
Pressure 29.96 in
Visibility 10.0 miles
Clouds Mostly Cloudy 1300 ft
Overcast 4000 ft
Windchill 37 °F
Dew Point 38 °F
Humidity 91%
Rainfall 0.33 in
Snow Depth Not available.
7:11 AM 5:57 PM
Waning Crescent, 2% visible
METAR KCHS 070956Z 01015KT 10SM RA BKN013 OVC040 04/03 A2997 RMK AO2 SLP146 P0008 T00440028

10-Day Weather Forecast

Almanac

Astronomy

Feb. 07, 2016 Rise Set
Actual Time
Civil Twilight
Nautical Twilight
Astronomical Twilight
Moon
Length of Visible Light
Length of Day
Tomorrow will be .
, % of the Moon is Illuminated

Today's Extremes

State Highs State Lows

Community

WunderPhotos

Upload Photos

1,891,171 photos uploaded!

WunderBlog® & News

Nearby

Air Quality

  Air Quality AQ Index Pollutant
Not available.

Snow Depth

Station Depth Elevation

Earthquake Activity

City Distance Mag. Time & Date
Minimum magnitude displayed is 2.5.

Coastal Water Temperatures

Place Temperature

Stations

Nearby Weather Stations

Station Location Temp. Windchill Dew Point Humidity Wind Precip. Elev Updated Type
                   

Watches & Warnings

Flood Warning
Issued: 8:52 PM EST Feb. 6, 2016 – National Weather Service

The Flood Warning continues for
the Santee river near Jamestown.
* At 7 PM Saturday the stage was 12.8 feet.
* Flood stage is 10.0 feet.
* Minor flooding is occurring.
* Forecast, the river will rise to near 14.3 feet by Monday evening
then begin a slow fall.
* At 12.0 feet, several dirt logging roads are impassable.


Lat... Lon 3347 8002 3354 7998 3325 7937 3321 7938
          3320 7951 3329 7976




Lake Wind Advisory
Issued: 3:24 AM EST Feb. 7, 2016 – National Weather Service

... Lake Wind Advisory remains in effect until 7 PM EST this
evening for Lake Moultrie...

* winds... north and northwest as high as 20 to 25 knots.

* Waves... around 2 feet... highest over central and southern
portions of the lake.

* Impacts... strong winds and rough waves on Lake Moultrie will
make conditions difficult for small craft.

Precautionary/preparedness actions...

Mariners on Lake Moultrie should use extra caution since strong
winds and rough waves can overturn small craft.